createdAt,value
2022-11-14T00:02:32.145Z,99215.28
2022-11-14T00:05:21.209Z,99208.56
2022-11-14T00:08:18.338Z,99199.72
2022-11-14T00:11:06.134Z,99197.09
2022-11-14T00:13:55.738Z,99201.44
2022-11-14T00:16:43.433Z,99193.84
2022-11-14T00:19:31.158Z,99192.19
2022-11-14T00:22:18.501Z,99187.28
2022-11-14T00:25:06.915Z,99185.25
2022-11-14T00:27:57.649Z,99203.28
2022-11-14T00:30:50.035Z,99189.28
2022-11-14T00:33:37.990Z,99193.97
2022-11-14T00:36:25.402Z,99199.56
2022-11-14T00:39:14.483Z,99190.06
2022-11-14T00:42:01.995Z,99201.88
2022-11-14T00:44:49.578Z,99192.97
2022-11-14T00:47:38.777Z,99181.69
2022-11-14T00:50:26.303Z,99185.72
2022-11-14T00:53:14.286Z,99190.94
2022-11-14T00:56:01.708Z,99184.06
2022-11-14T00:58:49.161Z,99183.72
2022-11-14T01:01:38.596Z,99188.94
2022-11-14T01:04:27.184Z,99189.88
2022-11-14T01:07:14.646Z,99181.78
2022-11-14T01:10:02.261Z,99190.19
2022-11-14T01:12:50.485Z,99192.97
2022-11-14T01:15:41.554Z,99184.16
2022-11-14T01:18:29.624Z,99190.19
2022-11-14T01:21:19.340Z,99194.41
2022-11-14T01:24:08.329Z,99186.75
2022-11-14T01:26:56.957Z,99185.28
2022-11-14T01:29:44.787Z,99177.06
2022-11-14T01:32:32.575Z,99171.75
2022-11-14T01:35:20.415Z,99163.28
2022-11-14T01:38:13.282Z,99167.25
2022-11-14T01:41:01.431Z,99168.03
2022-11-14T01:43:49.176Z,99153.19
2022-11-14T01:46:40.165Z,99151.44
2022-11-14T01:49:37.268Z,99143.28
2022-11-14T01:52:29.253Z,99131.75
2022-11-14T01:55:18.508Z,99146.59
2022-11-14T01:58:06.124Z,99147.59
2022-11-14T02:00:53.610Z,99141.94
2022-11-14T02:03:45.323Z,99141.75
2022-11-14T02:06:33.462Z,99140.81
2022-11-14T02:09:20.897Z,99137.22
2022-11-14T02:12:13.952Z,99126.63
2022-11-14T02:15:03.606Z,99118.69
2022-11-14T02:17:51.333Z,99122.69
2022-11-14T02:20:43.381Z,99118.00
2022-11-14T02:23:33.730Z,99112.53
2022-11-14T02:26:23.928Z,99117.97
2022-11-14T02:29:12.697Z,99108.91
2022-11-14T02:32:00.869Z,99113.53
2022-11-14T02:34:48.666Z,99121.38
2022-11-14T02:37:38.084Z,99117.25
2022-11-14T02:40:25.666Z,99123.47
2022-11-14T02:43:13.593Z,99123.78
2022-11-14T02:46:05.652Z,99115.69
2022-11-14T02:48:53.668Z,99109.56
2022-11-14T02:51:41.984Z,99117.56
2022-11-14T02:54:31.084Z,99113.44
2022-11-14T02:57:18.726Z,99109.97
2022-11-14T03:00:14.390Z,99098.53
2022-11-14T03:03:02.996Z,99096.47
2022-11-14T03:05:52.335Z,99095.06
2022-11-14T03:08:40.162Z,99100.09
2022-11-14T03:11:29.106Z,99087.78
2022-11-14T03:14:16.899Z,99097.56
2022-11-14T03:17:04.975Z,99089.66
2022-11-14T03:19:52.503Z,99097.56
2022-11-14T03:22:39.870Z,99101.00
2022-11-14T03:25:27.758Z,99093.97
2022-11-14T03:28:16.994Z,99092.19
2022-11-14T03:31:05.583Z,99090.00
2022-11-14T03:33:53.525Z,99084.81
2022-11-14T03:36:41.250Z,99080.31
2022-11-14T03:39:29.375Z,99086.16
2022-11-14T03:42:16.582Z,99083.09
2022-11-14T03:45:07.034Z,99084.63
2022-11-14T03:47:56.214Z,99088.50
2022-11-14T03:50:44.834Z,99080.41
2022-11-14T03:53:32.458Z,99074.09
2022-11-14T03:56:20.217Z,99074.28
2022-11-14T03:59:08.174Z,99055.16
2022-11-14T04:01:57.619Z,99042.50
2022-11-14T04:04:45.399Z,99056.34
2022-11-14T04:07:32.966Z,99049.50
2022-11-14T04:10:20.924Z,99057.94
2022-11-14T04:13:08.676Z,99043.66
2022-11-14T04:15:57.478Z,99056.91
2022-11-14T04:18:46.841Z,99068.03
2022-11-14T04:21:34.222Z,99065.25
2022-11-14T04:24:21.919Z,99066.66
2022-11-14T04:27:09.375Z,99057.44
2022-11-14T04:29:56.746Z,99069.97
2022-11-14T04:32:47.964Z,99074.63
2022-11-14T04:35:37.048Z,99089.13
2022-11-14T04:38:24.995Z,99089.38
2022-11-14T04:41:12.409Z,99102.66
2022-11-14T04:43:59.663Z,99098.88
2022-11-14T04:46:47.444Z,99104.41
2022-11-14T04:49:35.380Z,99105.19
2022-11-14T04:52:24.476Z,99101.97
2022-11-14T04:55:12.114Z,99092.44
2022-11-14T04:58:00.068Z,99108.06
2022-11-14T05:00:47.555Z,99087.78
2022-11-14T05:03:35.546Z,99092.63
2022-11-14T05:06:23.431Z,99087.78
2022-11-14T05:09:12.678Z,99081.47
2022-11-14T05:12:00.589Z,99084.88
2022-11-14T05:14:48.809Z,99082.81
2022-11-14T05:17:36.474Z,99074.00
2022-11-14T05:20:23.737Z,99080.38
2022-11-14T05:23:22.369Z,99077.31
2022-11-14T05:26:14.523Z,99071.03
2022-11-14T05:29:02.419Z,99068.69
2022-11-14T05:31:49.858Z,99065.50
2022-11-14T05:34:37.607Z,99063.19
2022-11-14T05:37:25.156Z,99064.16
2022-11-14T05:40:13.455Z,99064.31
2022-11-14T05:43:02.264Z,99062.13
2022-11-14T05:45:49.981Z,99068.59
2022-11-14T05:48:38.525Z,99065.25
2022-11-14T05:51:26.384Z,99080.06
2022-11-14T05:54:13.856Z,99084.91
2022-11-14T05:57:01.255Z,99078.69
2022-11-14T05:59:50.494Z,99095.50
2022-11-14T06:02:38.391Z,99103.59
2022-11-14T06:05:26.128Z,99097.69
2022-11-14T06:08:14.009Z,99101.38
2022-11-14T06:11:05.058Z,99096.59
2022-11-14T06:13:53.066Z,99098.94
2022-11-14T06:16:42.211Z,99107.84
2022-11-14T06:19:29.832Z,99102.53
2022-11-14T06:22:17.749Z,99090.19
2022-11-14T06:25:05.892Z,99097.09
2022-11-14T06:27:53.552Z,99098.88
2022-11-14T06:30:41.459Z,99096.38
2022-11-14T06:33:35.640Z,99095.56
2022-11-14T06:36:23.037Z,99084.91
2022-11-14T06:39:10.681Z,99097.53
2022-11-14T06:41:58.087Z,99092.00
2022-11-14T06:44:45.659Z,99098.56
2022-11-14T06:47:33.248Z,99095.16
2022-11-14T06:50:22.283Z,99098.25
2022-11-14T06:53:10.142Z,99100.69
2022-11-14T06:55:59.893Z,99089.50
2022-11-14T06:58:50.422Z,99102.56
2022-11-14T07:01:37.921Z,99086.69
2022-11-14T07:04:25.270Z,99095.53
2022-11-14T07:07:14.220Z,99102.06
2022-11-14T07:10:02.224Z,99107.78
2022-11-14T07:12:50.074Z,99115.88
2022-11-14T07:15:38.105Z,99109.59
2022-11-14T07:18:26.141Z,99115.31
2022-11-14T07:21:14.567Z,99101.84
2022-11-14T07:24:03.936Z,99109.06
2022-11-14T07:26:57.868Z,99111.53
2022-11-14T07:29:45.639Z,99108.41
2022-11-14T07:32:33.321Z,99100.03
2022-11-14T07:35:21.094Z,99094.13
2022-11-14T07:38:08.413Z,99087.50
2022-11-14T07:41:00.068Z,99105.00
2022-11-14T07:43:48.333Z,99084.28
2022-11-14T07:46:35.844Z,99077.94
2022-11-14T07:49:23.580Z,99074.91
2022-11-14T07:52:10.862Z,99064.63
2022-11-14T07:54:58.575Z,99070.00
2022-11-14T07:57:49.352Z,99068.94
2022-11-14T08:00:38.045Z,99067.97
2022-11-14T08:03:26.382Z,99073.41
2022-11-14T08:06:17.001Z,99080.78
2022-11-14T08:09:06.447Z,99070.47
2022-11-14T08:11:54.437Z,99061.03
2022-11-14T08:14:43.694Z,99056.34
2022-11-14T08:17:31.288Z,99065.66
2022-11-14T08:20:18.998Z,99074.94
2022-11-14T08:23:07.769Z,99074.97
2022-11-14T08:25:59.747Z,99076.56
2022-11-14T08:28:47.197Z,99084.63
2022-11-14T08:31:36.103Z,99084.59
2022-11-14T08:34:23.939Z,99079.41
2022-11-14T08:37:11.660Z,99069.34
2022-11-14T08:40:00.097Z,99076.56
2022-11-14T08:42:47.958Z,99076.19
2022-11-14T08:45:35.779Z,99077.34
2022-11-14T08:48:25.135Z,99087.81
2022-11-14T08:51:13.164Z,99098.25
2022-11-14T08:54:01.002Z,99098.28
2022-11-14T08:56:48.567Z,99085.81
2022-11-14T08:59:36.023Z,99078.97
2022-11-14T09:02:23.446Z,99072.91
2022-11-14T09:05:12.555Z,99073.34
2022-11-14T09:08:00.314Z,99067.72
2022-11-14T09:10:48.534Z,99068.53
2022-11-14T09:13:38.747Z,99066.81
2022-11-14T09:16:26.556Z,99071.25
2022-11-14T09:19:14.158Z,99060.84
2022-11-14T09:22:03.182Z,99057.28
2022-11-14T09:24:52.112Z,99061.28
2022-11-14T09:27:39.617Z,99059.72
2022-11-14T09:30:26.750Z,99052.06
2022-11-14T09:33:13.698Z,99047.59
2022-11-14T09:36:01.957Z,99037.53
2022-11-14T09:38:52.391Z,99033.50
2022-11-14T09:41:51.815Z,99028.28
2022-11-14T09:44:50.716Z,99037.97
2022-11-14T09:47:40.680Z,99024.31
2022-11-14T09:50:31.518Z,99011.44
2022-11-14T09:53:24.468Z,99015.88
2022-11-14T09:56:17.108Z,99005.78
2022-11-14T09:59:04.508Z,99003.38
2022-11-14T10:01:58.426Z,99007.34
2022-11-14T10:04:53.001Z,99000.91
2022-11-14T10:07:47.899Z,99012.91
2022-11-14T10:10:48.210Z,99022.03
2022-11-14T10:14:00.735Z,99017.50
2022-11-14T10:16:53.228Z,99002.06
2022-11-14T10:19:45.677Z,98994.06
2022-11-14T10:22:50.086Z,98988.56
2022-11-14T10:25:47.198Z,99001.56
2022-11-14T10:28:49.905Z,98990.28
2022-11-14T10:31:45.326Z,98990.38
2022-11-14T10:34:39.207Z,98984.00
2022-11-14T10:37:30.873Z,98983.94
2022-11-14T10:40:20.965Z,98986.38
2022-11-14T10:43:17.796Z,98977.56
2022-11-14T10:46:11.719Z,98982.72
2022-11-14T10:49:00.663Z,98972.63
2022-11-14T10:51:51.514Z,98971.31
2022-11-14T10:54:42.979Z,98967.81
2022-11-14T10:57:31.443Z,98963.78
2022-11-14T11:00:23.047Z,98969.13
2022-11-14T11:03:12.113Z,98964.75
2022-11-14T11:05:59.880Z,98966.97
2022-11-14T11:09:04.446Z,98966.69
2022-11-14T11:11:57.771Z,98958.28
2022-11-14T11:14:46.661Z,98957.50
2022-11-14T11:17:40.301Z,98955.56
2022-11-14T11:20:34.617Z,98959.94
2022-11-14T11:23:25.380Z,98957.03
2022-11-14T11:26:20.838Z,98951.78
2022-11-14T11:29:16.638Z,98946.84
2022-11-14T11:32:04.316Z,98933.97
2022-11-14T11:34:53.033Z,98928.19
2022-11-14T11:37:45.695Z,98932.25
2022-11-14T11:40:34.431Z,98917.19
2022-11-14T11:43:44.162Z,98908.75
2022-11-14T11:46:36.357Z,98907.69
2022-11-14T11:49:29.527Z,98906.81
2022-11-14T11:52:22.584Z,98908.59
2022-11-14T11:55:19.103Z,98917.31
2022-11-14T11:58:08.189Z,98904.72
2022-11-14T12:00:56.081Z,98905.03
2022-11-14T12:03:48.022Z,98894.16
2022-11-14T12:06:40.866Z,98901.91
2022-11-14T12:10:03.174Z,98903.56
2022-11-14T12:13:00.084Z,98896.38
2022-11-14T12:15:54.246Z,98887.84
2022-11-14T12:19:05.545Z,98882.13
2022-11-14T12:22:17.573Z,98885.19
2022-11-14T12:25:32.443Z,98875.78
2022-11-14T12:28:36.771Z,98874.88
2022-11-14T12:31:24.118Z,98871.25
2022-11-14T12:34:22.953Z,98877.13
2022-11-14T12:37:14.774Z,98877.59
2022-11-14T12:40:04.194Z,98887.25
2022-11-14T12:42:52.280Z,98884.59
2022-11-14T12:46:01.311Z,98878.53
2022-11-14T12:48:49.039Z,98889.97
2022-11-14T12:51:52.878Z,98885.66
2022-11-14T12:54:44.700Z,98886.31
2022-11-14T12:57:50.307Z,98876.28
2022-11-14T13:00:40.931Z,98878.38
2022-11-14T13:03:40.370Z,98876.53
2022-11-14T13:06:34.910Z,98880.22
2022-11-14T13:09:43.098Z,98880.94
2022-11-14T13:12:51.042Z,98873.69
2022-11-14T13:16:06.562Z,98876.78
2022-11-14T13:19:20.124Z,98875.91
2022-11-14T13:22:40.665Z,98869.41
2022-11-14T13:25:27.952Z,98869.31
2022-11-14T13:28:48.649Z,98874.88
2022-11-14T13:31:52.393Z,98868.28
2022-11-14T13:34:51.690Z,98866.59
2022-11-14T13:38:07.070Z,98859.78
2022-11-14T13:41:00.990Z,98857.41
2022-11-14T13:44:04.881Z,98855.81
2022-11-14T13:47:18.163Z,98848.09
2022-11-14T13:50:08.898Z,98851.78
2022-11-14T13:52:56.768Z,98853.94
2022-11-14T13:55:57.754Z,98853.25
2022-11-14T13:59:06.305Z,98855.31
2022-11-14T14:02:09.379Z,98854.53
2022-11-14T14:05:07.425Z,98849.72
2022-11-14T14:08:06.310Z,98844.47
2022-11-14T14:11:06.171Z,98850.59
2022-11-14T14:13:59.957Z,98847.94
2022-11-14T14:16:51.936Z,98840.59
2022-11-14T14:19:49.663Z,98843.00
2022-11-14T14:22:42.261Z,98841.59
2022-11-14T14:25:35.629Z,98831.59
2022-11-14T14:28:31.710Z,98831.00
2022-11-14T14:31:20.812Z,98830.31
2022-11-14T14:34:23.540Z,98835.44
2022-11-14T14:37:18.716Z,98836.22
2022-11-14T14:40:11.145Z,98845.22
2022-11-14T14:42:59.935Z,98833.69
2022-11-14T14:45:49.502Z,98824.59
2022-11-14T14:48:40.178Z,98826.47
2022-11-14T14:51:38.949Z,98825.00
2022-11-14T14:54:29.369Z,98811.41
2022-11-14T14:57:23.021Z,98807.03
2022-11-14T15:00:23.071Z,98797.81
2022-11-14T15:03:11.516Z,98805.44
2022-11-14T15:06:03.030Z,98809.06
2022-11-14T15:08:50.775Z,98817.13
2022-11-14T15:11:42.443Z,98814.31
2022-11-14T15:14:31.974Z,98822.34
2022-11-14T15:17:21.169Z,98824.34
2022-11-14T15:20:22.299Z,98820.31
2022-11-14T15:23:20.601Z,98817.50
2022-11-14T15:26:14.571Z,98805.88
2022-11-14T15:29:07.839Z,98797.03
2022-11-14T15:31:57.129Z,98806.66
2022-11-14T15:35:05.846Z,98802.66
2022-11-14T15:41:23.107Z,98787.00
2022-11-14T15:44:30.388Z,98798.22
2022-11-14T15:47:23.665Z,98794.63
2022-11-14T15:50:29.095Z,98786.19
2022-11-14T15:53:23.994Z,98790.59
2022-11-14T15:56:13.960Z,98784.22
2022-11-14T15:59:01.435Z,98785.81
2022-11-14T16:01:51.471Z,98784.19
2022-11-14T16:04:43.073Z,98786.59
2022-11-14T16:07:36.139Z,98780.16
2022-11-14T16:10:25.210Z,98777.78
2022-11-14T16:13:12.590Z,98782.56
2022-11-14T16:15:59.786Z,98774.94
2022-11-14T16:18:46.879Z,98779.78
2022-11-14T16:21:34.593Z,98770.50
2022-11-14T16:24:26.711Z,98770.50
2022-11-14T16:27:16.836Z,98776.53
2022-11-14T16:30:04.601Z,98783.75
2022-11-14T16:32:52.753Z,98782.56
2022-11-14T16:35:40.002Z,98776.16
2022-11-14T16:38:27.446Z,98766.50
2022-11-14T16:41:16.779Z,98772.13
2022-11-14T16:44:03.898Z,98774.53
2022-11-14T16:46:51.475Z,98772.16
2022-11-14T16:49:39.200Z,98763.34
2022-11-14T16:52:26.703Z,98771.34
2022-11-14T16:55:13.995Z,98772.53
2022-11-14T16:58:02.774Z,98776.56
2022-11-14T17:00:49.966Z,98766.53
2022-11-14T17:03:37.543Z,98776.97
2022-11-14T17:06:25.645Z,98772.13
2022-11-14T17:09:14.777Z,98777.75
2022-11-14T17:12:02.229Z,98777.75
2022-11-14T17:14:51.290Z,98769.75
2022-11-14T17:17:38.494Z,98772.94
2022-11-14T17:20:25.898Z,98773.72
2022-11-14T17:23:13.809Z,98777.31
2022-11-14T17:26:05.104Z,98768.91
2022-11-14T17:28:52.441Z,98773.72
2022-11-14T17:31:46.688Z,98767.72
2022-11-14T17:34:34.490Z,98760.88
2022-11-14T17:37:21.916Z,98764.06
2022-11-14T17:40:15.278Z,98763.66
2022-11-14T17:43:02.911Z,98764.88
2022-11-14T17:45:56.223Z,98766.06
2022-11-14T17:48:45.350Z,98761.66
2022-11-14T17:51:33.689Z,98748.84
2022-11-14T17:54:21.030Z,98754.88
2022-11-14T17:57:08.607Z,98742.03
2022-11-14T17:59:57.768Z,98745.63
2022-11-14T18:02:45.258Z,98745.66
2022-11-14T18:05:33.902Z,98736.44
2022-11-14T18:08:20.937Z,98730.41
2022-11-14T18:11:11.262Z,98734.44
2022-11-14T18:13:59.493Z,98733.63
2022-11-14T18:17:11.337Z,98730.00
2022-11-14T18:19:56.164Z,98730.81
2022-11-14T18:22:44.956Z,98737.63
2022-11-14T18:25:32.788Z,98731.22
2022-11-14T18:28:20.093Z,98736.44
2022-11-14T18:31:10.951Z,98732.41
2022-11-14T18:33:58.424Z,98736.03
2022-11-14T18:36:45.985Z,98731.22
2022-11-14T18:39:35.019Z,98729.63
2022-11-14T18:42:22.339Z,98727.63
2022-11-14T18:45:10.517Z,98718.78
2022-11-14T18:47:59.699Z,98721.59
2022-11-14T18:50:46.877Z,98725.59
2022-11-14T18:53:34.410Z,98717.59
2022-11-14T18:56:27.917Z,98716.38
2022-11-14T18:59:15.405Z,98719.19
2022-11-14T19:02:02.871Z,98706.78
2022-11-14T19:04:52.086Z,98715.19
2022-11-14T19:07:39.273Z,98717.59
2022-11-14T19:10:27.100Z,98715.59
2022-11-14T19:13:15.878Z,98718.41
2022-11-14T19:16:03.319Z,98724.41
2022-11-14T19:18:50.831Z,98729.59
2022-11-14T19:21:39.026Z,98722.41
2022-11-14T19:24:27.128Z,98727.22
2022-11-14T19:27:17.418Z,98725.59
2022-11-14T19:30:08.562Z,98722.78
2022-11-14T19:32:55.967Z,98720.78
2022-11-14T19:35:46.859Z,98720.81
2022-11-14T19:38:36.633Z,98725.63
2022-11-14T19:41:29.530Z,98717.59
2022-11-14T19:44:17.002Z,98712.78
2022-11-14T19:47:06.910Z,98707.19
2022-11-14T19:49:54.424Z,98711.56
2022-11-14T19:52:43.830Z,98705.16
2022-11-14T19:55:32.201Z,98700.38
2022-11-14T19:58:19.758Z,98707.97
2022-11-14T20:01:08.948Z,98711.97
2022-11-14T20:03:58.935Z,98707.56
2022-11-14T20:06:46.395Z,98697.53
2022-11-14T20:09:33.881Z,98689.50
2022-11-14T20:12:20.926Z,98701.94
2022-11-14T20:15:09.118Z,98694.34
2022-11-14T20:17:56.415Z,98688.72
2022-11-14T20:20:45.649Z,98687.50
2022-11-14T20:23:33.767Z,98688.72
2022-11-14T20:26:22.416Z,98687.09
2022-11-14T20:29:10.149Z,98678.31
2022-11-14T20:31:58.167Z,98676.31
2022-11-14T20:34:45.949Z,98677.47
2022-11-14T20:37:34.937Z,98664.25
2022-11-14T20:40:26.108Z,98666.28
2022-11-14T20:43:13.268Z,98663.50
2022-11-14T20:46:02.129Z,98663.88
2022-11-14T20:48:50.049Z,98667.13
2022-11-14T20:51:39.649Z,98667.13
2022-11-14T20:54:28.467Z,98670.72
2022-11-14T20:57:16.050Z,98666.31
2022-11-14T21:00:03.290Z,98670.69
2022-11-14T21:02:50.502Z,98669.50
2022-11-14T21:05:39.693Z,98659.06
2022-11-14T21:08:29.677Z,98645.84
2022-11-14T21:11:19.226Z,98647.03
2022-11-14T21:14:06.788Z,98652.25
2022-11-14T21:16:53.813Z,98653.06
2022-11-14T21:19:41.779Z,98652.69
2022-11-14T21:22:29.150Z,98646.28
2022-11-14T21:25:16.133Z,98635.88
2022-11-14T21:28:04.975Z,98633.44
2022-11-14T21:30:52.038Z,98631.03
2022-11-14T21:33:39.542Z,98632.63
2022-11-14T21:39:34.830Z,98618.59
2022-11-14T21:42:22.441Z,98610.97
2022-11-14T21:45:12.114Z,98613.78
2022-11-14T21:47:59.378Z,98608.97
2022-11-14T21:50:47.295Z,98610.16
2022-11-14T21:53:34.888Z,98615.75
2022-11-14T21:56:24.274Z,98614.56
2022-11-14T21:59:15.603Z,98616.63
2022-11-14T22:02:22.150Z,98618.19
2022-11-14T22:05:09.584Z,98604.59
2022-11-14T22:07:57.022Z,98598.16
2022-11-14T22:10:44.548Z,98599.72
2022-11-14T22:13:32.670Z,98592.09
2022-11-14T22:16:20.940Z,98584.91
2022-11-14T22:19:09.814Z,98586.91
2022-11-14T22:21:56.945Z,98577.28
2022-11-14T22:24:44.204Z,98582.06
2022-11-14T22:27:31.474Z,98574.88
2022-11-14T22:30:18.879Z,98568.44
2022-11-14T22:33:06.204Z,98570.00
2022-11-14T22:35:55.156Z,98569.97
2022-11-14T22:38:43.619Z,98566.31
2022-11-14T22:41:33.477Z,98559.47
2022-11-14T22:44:21.632Z,98570.63
2022-11-14T22:47:08.758Z,98563.00
2022-11-14T22:49:55.759Z,98564.91
2022-11-14T22:52:44.240Z,98563.28
2022-11-14T22:55:31.491Z,98557.66
2022-11-14T22:58:18.816Z,98560.84
2022-11-14T23:01:12.338Z,98560.06
2022-11-14T23:04:01.492Z,98552.13
2022-11-14T23:06:48.895Z,98542.50
2022-11-14T23:09:37.547Z,98540.09
2022-11-14T23:12:25.419Z,98534.50
2022-11-14T23:15:12.854Z,98531.28
2022-11-14T23:18:00.719Z,98532.06
2022-11-14T23:20:48.137Z,98526.91
2022-11-14T23:23:35.435Z,98528.06
2022-11-14T23:26:24.837Z,98523.28
2022-11-14T23:29:14.232Z,98533.28
2022-11-14T23:32:01.626Z,98525.72
2022-11-14T23:34:49.077Z,98532.94
2022-11-14T23:37:36.671Z,98527.81
2022-11-14T23:40:24.042Z,98533.03
2022-11-14T23:43:12.936Z,98537.84
2022-11-14T23:46:00.618Z,98541.88
2022-11-14T23:48:48.134Z,98545.94
2022-11-14T23:51:35.830Z,98535.94
2022-11-14T23:54:23.493Z,98543.13
2022-11-14T23:57:10.883Z,98545.16
2022-11-14T23:59:59.909Z,98542.00
